Time;durP1;ratioP1;P1;durP2;ratioP2;P2;SDS_P1;SDS_P2;PMS_P1;PMS_P2;Temp;Humidity;BMP_temperature;BMP_pressure;BME280_temperature;BME280_humidity;BME280_pressure;Samples;Min_cycle;Max_cycle;Signal;HPM_P1;HPM_P2
2022/08/09 00:00:23;;;;;;;4.72;3.28;;;21.50;52.10;;;17.83;67.04;95988.69;4960411;28;20089;-53
2022/08/09 00:02:50;;;;;;;6.20;3.35;;;21.50;52.30;;;17.79;66.84;95981.22;4957399;28;20042;-43
2022/08/09 00:05:22;;;;;;;5.60;3.00;;;21.50;52.30;;;17.78;67.48;95985.00;4954347;28;20431;-45
2022/08/09 00:07:51;;;;;;;3.77;3.37;;;21.50;52.50;;;17.72;67.86;95980.78;4936112;28;20042;-45
2022/08/09 00:10:16;;;;;;;3.47;3.17;;;21.40;52.40;;;17.66;67.84;95987.38;4955583;28;20332;-44
2022/08/09 00:12:42;;;;;;;7.32;3.13;;;21.40;52.50;;;17.60;68.04;95985.88;4963580;28;20030;-46
2022/08/09 00:15:10;;;;;;;5.38;3.25;;;21.30;52.60;;;17.53;68.33;95988.97;4954216;28;20027;-46
2022/08/09 00:17:38;;;;;;;6.38;3.28;;;21.30;52.80;;;17.51;68.51;95988.47;4942519;28;20485;-46
2022/08/09 00:20:09;;;;;;;3.47;3.13;;;21.30;52.90;;;17.47;68.89;95982.09;4938650;28;20033;-46
2022/08/09 00:22:35;;;;;;;4.85;3.28;;;21.20;53.00;;;17.42;69.17;95990.25;4956775;28;20105;-46
2022/08/09 00:25:07;;;;;;;4.32;3.13;;;21.20;53.00;;;17.34;69.45;95986.38;4960714;28;20478;-47
2022/08/09 00:27:39;;;;;;;7.32;3.63;;;21.20;53.30;;;17.30;69.58;95979.97;4940475;28;20042;-47
2022/08/09 00:30:09;;;;;;;7.82;3.67;;;21.10;53.40;;;17.21;70.03;95989.03;4957506;28;20057;-46
2022/08/09 00:32:35;;;;;;;4.72;3.40;;;21.00;53.40;;;17.12;70.39;95988.94;4933688;28;20031;-45
2022/08/09 00:35:02;;;;;;;5.03;3.20;;;20.90;53.50;;;17.01;70.87;95987.50;4967499;28;20029;-46
2022/08/09 00:37:27;;;;;;;4.40;3.45;;;20.90;53.70;;;16.97;71.10;95981.91;4937589;28;20050;-46
2022/08/09 00:39:53;;;;;;;3.53;3.22;;;20.80;53.80;;;17.00;70.65;95986.69;4964004;28;20088;-46
2022/08/09 00:42:19;;;;;;;4.05;3.60;;;20.80;54.00;;;17.00;70.47;95986.69;4948682;28;20027;-47
2022/08/09 00:44:45;;;;;;;3.58;3.13;;;20.70;54.10;;;16.97;70.77;95987.28;4947446;28;20033;-46
2022/08/09 00:47:11;;;;;;;4.45;3.63;;;20.70;54.20;;;16.94;70.85;95982.50;4954784;28;20066;-47
2022/08/09 00:49:37;;;;;;;5.30;3.55;;;20.70;54.30;;;16.92;70.73;95981.97;4948786;28;20129;-49
2022/08/09 00:52:07;;;;;;;4.05;3.63;;;20.60;54.30;;;16.86;71.04;95981.28;4938185;28;20037;-48
2022/08/09 00:54:33;;;;;;;5.80;3.67;;;20.60;54.50;;;16.85;71.21;95986.94;4957522;28;20033;-47
2022/08/09 00:57:04;;;;;;;3.80;3.47;;;20.60;54.50;;;16.77;71.46;95991.13;4948184;28;20145;-50
2022/08/09 00:59:32;;;;;;;6.05;3.42;;;20.60;54.80;;;16.75;71.57;95982.53;4949857;28;20532;-47
2022/08/09 01:02:01;;;;;;;4.80;3.45;;;20.50;54.70;;;16.73;71.34;95981.19;4957100;28;20057;-47
2022/08/09 01:04:48;;;;;;;5.28;3.90;;;20.50;54.80;;;16.73;71.76;95989.28;4958417;28;20528;-46
2022/08/09 01:07:51;;;;;;;8.85;3.60;;;20.50;55.00;;;16.66;71.98;95984.25;4954984;28;20443;-46
2022/08/09 01:10:35;;;;;;;3.90;3.58;;;20.40;54.90;;;16.57;72.46;95978.75;4931246;28;20027;-46
2022/08/09 01:13:52;;;;;;;4.90;3.72;;;20.40;55.00;;;16.49;72.64;95987.50;4957287;28;20121;-45
2022/08/09 01:16:31;;;;;;;3.80;3.40;;;20.30;55.10;;;16.46;72.91;95979.22;4958079;28;20129;-46
2022/08/09 01:19:13;;;;;;;5.60;4.05;;;20.20;55.10;;;16.37;73.14;95977.19;4941577;28;20342;-50
2022/08/09 01:22:02;;;;;;;4.88;3.80;;;20.20;55.30;;;16.35;73.51;95986.63;4948609;28;20023;-51
2022/08/09 01:25:04;;;;;;;4.20;3.80;;;20.10;55.40;;;16.33;73.58;95988.81;4943482;28;20423;-51
2022/08/09 01:27:36;;;;;;;5.40;3.90;;;20.10;56.20;;;16.33;73.60;95994.19;4945345;28;20031;-46
2022/08/09 01:30:10;;;;;;;4.90;3.65;;;20.10;55.60;;;16.27;73.74;95993.47;4953337;28;20069;-47
2022/08/09 01:32:47;;;;;;;4.00;3.70;;;20.00;55.70;;;16.26;74.20;95991.03;4932672;28;20035;-51
2022/08/09 01:35:58;;;;;;;5.07;4.10;;;20.00;55.90;;;16.17;74.56;95982.84;4935487;28;20031;-46
2022/08/09 01:38:33;;;;;;;5.38;3.70;;;20.00;56.00;;;16.12;74.59;95990.97;4958861;28;20030;-51
2022/08/09 01:41:17;;;;;;;5.38;3.80;;;19.90;56.00;;;16.07;75.10;95983.78;4951585;28;20122;-47
2022/08/09 01:43:53;;;;;;;5.05;4.35;;;19.80;56.20;;;16.02;75.23;95986.53;4955806;28;20038;-45
2022/08/09 01:46:43;;;;;;;6.03;4.20;;;19.80;56.20;;;15.94;75.52;95982.59;4941417;29;20109;-48
2022/08/09 01:49:19;;;;;;;4.82;4.35;;;19.80;56.30;;;15.87;75.85;95984.06;4957487;28;20053;-46
2022/08/09 01:52:02;;;;;;;6.10;3.90;;;19.70;56.50;;;15.78;76.22;95986.56;4953132;28;20026;-46
2022/08/09 01:54:44;;;;;;;4.50;4.10;;;19.60;56.60;;;15.78;76.18;95985.78;4968564;28;20484;-48
2022/08/09 01:57:28;;;;;;;5.22;4.72;;;19.60;56.80;;;15.75;76.48;95989.84;4948537;28;20030;-47
2022/08/09 02:00:02;;;;;;;4.68;4.28;;;19.50;57.00;;;15.70;76.68;95987.22;4945410;28;20036;-46
2022/08/09 02:02:39;;;;;;;7.25;4.40;;;19.50;57.10;;;15.60;76.47;95992.66;4941424;28;20486;-48
2022/08/09 02:05:13;;;;;;;5.78;4.88;;;19.40;57.20;;;15.47;77.15;95986.09;4932721;28;20928;-47
2022/08/09 02:07:55;;;;;;;6.22;4.93;;;19.30;57.30;;;15.34;76.96;95987.59;4948704;28;20038;-48
2022/08/09 02:10:32;;;;;;;7.35;4.78;;;19.30;57.60;;;15.19;76.94;95982.38;4962168;28;20029;-50
2022/08/09 02:13:11;;;;;;;5.85;5.25;;;19.20;57.60;;;15.05;77.66;95995.66;4954943;28;20042;-46
2022/08/09 02:15:44;;;;;;;7.00;5.15;;;19.10;57.90;;;14.91;80.19;95994.69;4936841;28;20125;-52
2022/08/09 02:18:12;;;;;;;6.07;5.40;;;19.00;57.90;;;14.82;79.98;95994.50;4937923;28;20054;-46
2022/08/09 02:20:54;;;;;;;10.27;5.65;;;18.90;58.10;;;14.74;79.97;96000.47;4966013;28;20061;-50
2022/08/09 02:23:34;;;;;;;6.28;5.68;;;18.80;58.30;;;14.65;79.99;96002.16;4939341;28;20030;-48
2022/08/09 02:26:03;;;;;;;8.07;6.07;;;18.70;58.60;;;14.55;80.60;95997.69;4944008;28;20069;-50
2022/08/09 02:28:39;;;;;;;7.50;6.18;;;18.60;58.60;;;14.45;81.18;96008.44;4956691;28;20077;-47
2022/08/09 02:31:26;;;;;;;7.03;5.97;;;18.60;58.90;;;14.34;80.82;96000.44;4949592;28;20310;-50
2022/08/09 02:33:59;;;;;;;6.43;5.82;;;18.40;59.10;;;14.25;82.55;96004.78;4937919;28;20038;-47
2022/08/09 02:36:40;;;;;;;;;;;18.40;59.20;;;14.20;83.44;96010.19;4957370;28;20363;-47
2022/08/09 02:39:17;;;;;;;8.98;6.05;;;18.30;58.60;;;14.12;83.94;96008.09;4955422;28;20392;-48
2022/08/09 02:42:33;;;;;;;6.72;6.13;;;18.20;59.20;;;14.01;85.25;96011.91;4940895;28;20065;-49
2022/08/09 02:45:33;;;;;;;7.55;6.45;;;18.10;59.40;;;13.95;85.55;96010.34;4959342;28;20037;-49
2022/08/09 02:48:12;;;;;;;6.82;6.22;;;18.00;59.60;;;13.86;85.98;96008.22;4947648;28;20095;-48
2022/08/09 02:50:52;;;;;;;7.45;6.75;;;18.00;59.90;;;13.79;86.72;96007.72;4948661;28;20039;-51
2022/08/09 02:53:30;;;;;;;9.25;7.35;;;17.90;60.10;;;13.73;86.96;96013.38;4942832;28;20034;-51
2022/08/09 02:56:03;;;;;;;7.70;6.55;;;17.80;60.40;;;13.67;87.10;96012.59;4939758;28;20049;-47
2022/08/09 02:58:33;;;;;;;8.15;7.35;;;17.70;60.50;;;13.63;86.98;96012.34;4924023;28;20113;-47
2022/08/09 03:01:02;;;;;;;7.75;6.95;;;17.70;60.70;;;13.56;86.78;96011.81;4953704;28;20073;-52
2022/08/09 03:03:32;;;;;;;10.05;7.25;;;17.70;60.90;;;13.48;86.66;96006.22;4936396;28;20729;-45
2022/08/09 03:06:03;;;;;;;9.10;7.50;;;17.50;61.00;;;13.39;86.87;96004.09;4936863;28;20101;-43
2022/08/09 03:08:33;;;;;;;11.45;8.20;;;17.50;61.40;;;13.32;87.51;96005.47;4943933;28;20445;-44
2022/08/09 03:11:02;;;;;;;8.50;7.70;;;17.40;61.60;;;13.26;88.05;96002.00;4940376;28;20451;-44
2022/08/09 03:13:36;;;;;;;9.43;7.15;;;17.40;61.80;;;13.19;89.11;95998.75;4939897;28;20019;-44
2022/08/09 03:16:06;;;;;;;9.73;7.47;;;17.30;62.00;;;13.14;90.31;96002.25;4962509;28;20038;-44
2022/08/09 03:18:35;;;;;;;9.10;8.20;;;17.30;62.10;;;13.12;90.60;96006.28;4946658;28;20575;-45
2022/08/09 03:21:03;;;;;;;9.43;8.27;;;17.20;62.30;;;13.08;90.96;95999.88;4940829;28;20457;-47
2022/08/09 03:23:33;;;;;;;11.52;8.43;;;17.20;62.40;;;13.05;91.75;96005.75;4940974;28;20026;-46
2022/08/09 03:26:03;;;;;;;10.85;8.88;;;17.10;62.70;;;13.02;92.47;96001.72;4949046;28;20050;-48
2022/08/09 03:28:31;;;;;;;9.75;8.38;;;17.10;63.20;;;13.05;92.68;96003.06;4952674;28;20030;-52
2022/08/09 03:31:01;;;;;;;11.25;8.07;;;17.10;63.20;;;13.00;91.84;95998.53;4960543;28;20034;-50
2022/08/09 03:33:30;;;;;;;9.02;8.15;;;17.10;63.50;;;13.02;92.72;96000.94;4944587;28;20026;-52
2022/08/09 03:35:59;;;;;;;10.77;9.00;;;17.00;64.30;;;12.99;92.29;95993.47;4940769;28;20015;-46
2022/08/09 03:38:25;;;;;;;10.15;7.50;;;17.00;63.80;;;13.01;92.37;95996.66;4942710;28;20034;-48
2022/08/09 03:40:51;;;;;;;9.48;8.48;;;17.00;63.80;;;13.02;91.72;95996.38;4938909;28;20113;-48
2022/08/09 03:43:17;;;;;;;12.32;9.20;;;17.00;63.80;;;13.00;92.05;95995.84;4954320;28;20076;-50
2022/08/09 03:45:45;;;;;;;8.75;7.85;;;16.90;64.00;;;13.00;92.15;96005.75;4963435;28;20485;-46
2022/08/09 03:48:12;;;;;;;9.25;8.13;;;16.90;64.00;;;12.94;92.13;96005.78;4944796;28;20042;-46
2022/08/09 03:50:41;;;;;;;10.38;8.40;;;16.90;64.10;;;12.92;92.62;96007.09;4960220;28;20113;-50
2022/08/09 03:53:09;;;;;;;10.15;8.48;;;16.90;64.30;;;12.87;92.71;96010.56;4944089;28;20022;-47
2022/08/09 03:55:39;;;;;;;10.18;9.07;;;16.90;64.40;;;12.88;92.53;96012.19;4933800;28;20125;-46
2022/08/09 03:58:05;;;;;;;9.85;8.65;;;16.90;64.50;;;12.85;92.28;96015.41;4949970;28;20045;-46
2022/08/09 04:00:34;;;;;;;11.25;9.20;;;16.90;64.50;;;12.81;92.02;96016.19;4938841;28;20034;-45
2022/08/09 04:03:03;;;;;;;11.98;8.95;;;16.80;64.70;;;12.76;92.25;96024.22;4940149;28;20040;-45
2022/08/09 04:05:29;;;;;;;11.60;8.93;;;16.80;64.70;;;12.70;92.36;96013.53;4938904;28;20550;-46
2022/08/09 04:07:58;;;;;;;10.25;8.93;;;16.80;64.60;;;12.69;91.93;96021.78;4959912;28;20054;-46
2022/08/09 04:10:30;;;;;;;10.57;9.20;;;16.80;64.70;;;12.68;92.59;96022.88;4942768;28;20026;-46
2022/08/09 04:13:00;;;;;;;10.90;9.00;;;16.80;65.00;;;12.66;92.44;96028.50;4955572;28;20108;-45
2022/08/09 04:15:32;;;;;;;9.18;8.27;;;16.70;65.00;;;12.62;92.67;96032.75;4963198;28;20026;-46
2022/08/09 04:17:57;;;;;;;12.95;8.45;;;16.70;64.90;;;12.59;92.08;96038.63;4962310;28;20770;-46
2022/08/09 04:20:26;;;;;;;10.60;8.52;;;16.70;64.90;;;12.55;92.15;96032.22;4943162;28;20060;-45
2022/08/09 04:22:51;;;;;;;12.95;9.52;;;16.70;64.90;;;12.54;91.77;96032.50;4956941;28;20030;-49
2022/08/09 04:25:25;;;;;;;12.05;9.45;;;16.60;64.90;;;12.49;91.22;96036.75;4958334;28;20030;-45
2022/08/09 04:27:55;;;;;;;10.05;9.02;;;16.60;65.10;;;12.44;91.18;96036.75;4946052;28;20041;-45
2022/08/09 04:30:25;;;;;;;11.60;9.75;;;16.60;65.00;;;12.41;90.94;96037.28;4939898;28;20064;-45
2022/08/09 04:32:52;;;;;;;13.85;9.32;;;16.60;64.90;;;12.34;91.87;96036.72;4952836;28;20027;-45
2022/08/09 04:35:19;;;;;;;12.10;10.25;;;16.50;64.90;;;12.32;93.51;96032.72;4958881;28;20033;-49
2022/08/09 04:37:46;;;;;;;10.93;9.77;;;16.50;65.20;;;12.34;93.34;96038.59;4956429;28;20516;-47
2022/08/09 04:40:13;;;;;;;14.18;10.68;;;16.50;65.20;;;12.32;93.74;96038.88;4942132;28;20026;-49
2022/08/09 04:42:41;;;;;;;14.35;10.52;;;16.50;65.40;;;12.32;94.24;96049.56;4953067;28;20038;-49
2022/08/09 04:45:08;;;;;;;12.10;9.55;;;16.50;65.70;;;12.33;94.25;96047.69;4930702;28;20033;-50
2022/08/09 04:47:38;;;;;;;11.32;9.98;;;16.50;65.70;;;12.34;94.48;96049.28;4952789;28;20462;-52
2022/08/09 04:50:05;;;;;;;14.18;10.48;;;16.50;65.90;;;12.36;94.72;96053.28;4961967;28;20039;-53
2022/08/09 04:52:34;;;;;;;13.45;9.95;;;16.50;66.00;;;12.38;94.52;96055.69;4962991;28;20030;-53
2022/08/09 04:55:06;;;;;;;11.90;10.60;;;16.60;66.10;;;12.44;94.88;96054.63;4958912;28;20092;-50
2022/08/09 04:57:32;;;;;;;11.88;10.55;;;16.60;66.10;;;12.65;95.28;96053.59;4956982;28;20022;-53
2022/08/09 05:00:05;;;;;;;13.25;9.82;;;16.70;65.80;;;13.00;95.61;96061.91;4958737;28;20041;-51
2022/08/09 05:02:31;;;;;;;;;;;16.90;66.10;;;13.36;94.83;96068.06;4963003;28;20125;-53
2022/08/09 05:05:03;;;;;;;11.10;9.88;;;17.00;65.20;;;13.68;93.62;96061.56;4957642;28;20057;-53
2022/08/09 05:07:35;;;;;;;10.77;9.75;;;17.20;65.70;;;13.97;92.01;96059.84;4963833;28;20026;-50
2022/08/09 05:10:08;;;;;;;8.85;7.97;;;17.40;65.50;;;14.20;89.41;96058.44;4940548;28;20057;-53
2022/08/09 05:12:37;;;;;;;8.98;7.50;;;17.60;65.50;;;14.42;87.99;96062.59;4962173;28;20438;-45
2022/08/09 05:15:03;;;;;;;7.72;6.90;;;17.80;65.30;;;14.66;86.02;96057.38;4948528;28;20027;-44
2022/08/09 05:17:29;;;;;;;6.75;6.00;;;18.00;65.00;;;14.88;84.79;96063.09;4958538;28;20030;-46
2022/08/09 05:19:55;;;;;;;6.70;6.10;;;18.20;64.70;;;15.11;83.87;96056.25;4954600;28;20028;-49
2022/08/09 05:22:21;;;;;;;7.43;6.18;;;18.40;64.40;;;15.40;83.66;96061.59;4934375;29;20118;-43
2022/08/09 05:24:47;;;;;;;8.48;5.75;;;18.70;64.20;;;15.69;82.05;96061.59;4950861;28;20105;-44
2022/08/09 05:27:13;;;;;;;5.28;4.78;;;18.90;63.80;;;16.00;80.64;96063.94;4953682;28;20030;-46
2022/08/09 05:29:41;;;;;;;7.53;5.63;;;19.20;63.50;;;16.25;78.39;96064.72;4933340;28;20073;-47
2022/08/09 05:32:07;;;;;;;5.80;4.85;;;19.50;63.00;;;16.49;77.50;96065.47;4937182;28;20477;-50
2022/08/09 05:34:33;;;;;;;5.13;4.43;;;19.80;62.60;;;16.72;75.54;96069.16;4958189;28;20026;-45
2022/08/09 05:37:05;;;;;;;8.73;5.10;;;20.00;62.00;;;16.96;74.41;96071.81;4940577;28;20026;-43
2022/08/09 05:39:36;;;;;;;9.00;4.63;;;20.30;61.30;;;17.19;72.77;96070.09;4939419;28;20647;-45
2022/08/09 05:42:03;;;;;;;5.45;4.90;;;20.60;60.70;;;17.44;72.37;96071.53;4960159;28;20539;-46
2022/08/09 05:44:37;;;;;;;5.53;4.55;;;20.80;60.10;;;17.70;70.77;96074.56;4962187;28;20117;-46
2022/08/09 05:47:03;;;;;;;4.88;4.47;;;21.20;59.60;;;17.95;70.20;96077.91;4957485;28;20038;-52
2022/08/09 05:49:29;;;;;;;4.70;3.60;;;21.40;59.20;;;18.01;68.14;96077.50;4941014;28;20394;-50
2022/08/09 05:51:54;;;;;;;3.85;3.47;;;21.70;58.60;;;18.24;66.71;96083.81;4954291;28;20034;-48
2022/08/09 05:54:20;;;;;;;3.55;3.25;;;21.90;58.00;;;18.48;66.33;96080.06;4947790;28;20084;-45
2022/08/09 05:56:46;;;;;;;4.95;3.25;;;22.20;57.40;;;18.65;64.37;96082.94;4944999;28;20482;-48
2022/08/09 05:59:12;;;;;;;5.88;3.53;;;22.50;56.80;;;18.90;64.52;96083.50;4958382;28;20042;-52
2022/08/09 06:01:38;;;;;;;5.88;3.88;;;22.80;56.40;;;18.98;63.57;96082.75;4959907;28;20028;-50
2022/08/09 06:04:04;;;;;;;3.63;3.33;;;23.00;55.70;;;18.99;63.05;96086.25;4959512;28;20043;-44
2022/08/09 06:06:30;;;;;;;3.75;3.45;;;23.20;55.00;;;19.14;62.62;96081.28;4940232;28;20477;-45
2022/08/09 06:08:58;;;;;;;3.63;3.30;;;23.40;54.50;;;19.29;62.71;96082.81;4951573;28;20043;-45
2022/08/09 06:11:23;;;;;;;3.50;3.20;;;23.60;54.00;;;19.44;61.24;96083.56;4958467;28;20018;-45
2022/08/09 06:13:49;;;;;;;5.18;3.65;;;23.80;53.50;;;19.58;61.41;96090.47;4958239;28;20079;-46
2022/08/09 06:16:18;;;;;;;4.13;3.40;;;23.90;53.00;;;19.77;60.21;96095.66;4956442;28;20549;-50
2022/08/09 06:18:50;;;;;;;6.63;3.55;;;24.10;52.60;;;19.68;60.62;96088.63;4960485;28;20039;-45
2022/08/09 06:21:16;;;;;;;4.85;3.25;;;24.30;52.10;;;19.79;60.00;96096.16;4935849;29;20031;-45
2022/08/09 06:23:46;;;;;;;6.47;3.53;;;24.50;51.70;;;19.80;60.35;96092.34;4934801;28;20035;-50
2022/08/09 06:26:18;;;;;;;4.18;3.78;;;24.60;51.20;;;19.76;59.87;96090.59;4955303;28;20492;-44
2022/08/09 06:28:44;;;;;;;5.38;3.85;;;24.80;50.70;;;19.90;59.61;96098.59;4954961;28;20041;-46
2022/08/09 06:31:10;;;;;;;4.45;3.83;;;24.90;50.40;;;19.96;58.67;96098.16;4937217;29;20048;-44
2022/08/09 06:33:37;;;;;;;4.72;3.42;;;25.00;49.90;;;20.05;59.14;96104.38;4956853;28;20038;-44
2022/08/09 06:36:04;;;;;;;3.75;3.45;;;25.10;49.60;;;20.03;58.47;96106.63;4949294;28;20602;-54
2022/08/09 06:38:32;;;;;;;5.00;3.50;;;25.20;49.10;;;20.24;58.10;96103.34;4931508;28;20039;-45
2022/08/09 06:41:10;;;;;;;4.97;3.50;;;25.40;49.00;;;20.33;58.61;96104.97;4951203;28;20433;-44
2022/08/09 06:43:38;;;;;;;6.70;3.90;;;25.50;48.60;;;20.46;56.70;96115.97;4943968;28;20062;-44
2022/08/09 06:46:05;;;;;;;3.70;3.40;;;25.70;48.40;;;20.38;57.75;96117.56;4964033;28;20023;-47
2022/08/09 06:48:30;;;;;;;4.28;3.88;;;25.80;47.80;;;20.54;57.27;96107.91;4955898;28;20050;-44
2022/08/09 06:50:58;;;;;;;5.22;4.03;;;25.90;47.60;;;20.49;57.07;96101.81;4955594;28;20061;-44
2022/08/09 06:53:26;;;;;;;4.47;4.07;;;26.10;47.20;;;20.46;56.94;96095.13;4943487;28;20022;-49
2022/08/09 06:55:52;;;;;;;6.10;4.10;;;26.20;46.70;;;20.42;57.50;96096.88;4935546;28;20026;-46
2022/08/09 06:58:21;;;;;;;4.13;3.72;;;26.30;46.40;;;20.44;56.59;96100.06;4959091;28;20057;-45
2022/08/09 07:00:57;;;;;;;5.28;3.47;;;26.40;46.00;;;20.44;56.37;96093.88;4928979;28;20512;-44
2022/08/09 07:03:27;;;;;;;4.05;3.58;;;26.50;45.60;;;20.73;56.44;96099.50;4937840;28;20041;-47
2022/08/09 07:05:54;;;;;;;5.28;3.50;;;26.60;45.50;;;20.97;55.25;96107.16;4957750;28;20490;-45
2022/08/09 07:08:26;;;;;;;4.55;3.88;;;26.70;45.40;;;20.85;56.27;96109.72;4954814;28;20026;-48
2022/08/09 07:10:58;;;;;;;5.07;3.58;;;26.90;45.10;;;21.05;55.28;96104.78;4961310;28;20137;-44
2022/08/09 07:13:30;;;;;;;6.05;3.65;;;27.00;44.80;;;21.38;54.51;96103.19;4959631;28;20035;-49
2022/08/09 07:16:02;;;;;;;3.90;3.60;;;27.20;44.60;;;21.48;53.47;96097.44;4946090;28;20401;-47
2022/08/09 07:18:28;;;;;;;8.70;3.72;;;27.30;44.10;;;21.38;53.75;96108.63;4940270;28;20082;-44
2022/08/09 07:21:02;;;;;;;6.63;3.65;;;27.50;43.90;;;21.49;53.77;96109.84;4960641;28;20038;-51
2022/08/09 07:23:28;;;;;;;5.60;3.63;;;27.60;43.40;;;21.65;53.53;96112.84;4952300;28;20066;-45
2022/08/09 07:25:54;;;;;;;7.75;3.33;;;27.80;43.30;;;21.81;52.21;96107.72;4936159;28;20046;-49
2022/08/09 07:28:20;;;;;;;4.43;3.58;;;27.90;42.90;;;22.24;52.32;96114.91;4959646;28;20046;-51
2022/08/09 07:30:46;;;;;;;4.10;3.75;;;28.10;43.40;;;22.35;51.23;96126.22;4941321;28;20038;-46
2022/08/09 07:33:17;;;;;;;3.85;3.45;;;28.30;42.30;;;22.67;50.38;96108.47;4935835;28;20034;-47
2022/08/09 07:35:45;;;;;;;3.97;3.47;;;28.50;42.00;;;22.66;49.55;96117.75;4966263;28;20030;-46
2022/08/09 07:38:17;;;;;;;3.80;3.15;;;28.70;41.50;;;22.81;49.59;96116.34;4961940;28;20109;-46
2022/08/09 07:40:43;;;;;;;5.05;3.42;;;28.90;41.10;;;22.86;48.94;96119.69;4964290;28;20141;-50
2022/08/09 07:43:09;;;;;;;3.47;3.17;;;29.00;40.80;;;22.53;49.54;96126.91;4954202;28;20035;-48
2022/08/09 07:45:35;;;;;;;3.33;3.03;;;29.20;40.20;;;22.90;48.83;96127.16;4969658;28;20548;-45
2022/08/09 07:48:05;;;;;;;7.07;3.05;;;29.30;39.90;;;23.25;47.87;96130.44;4949137;28;20104;-45
2022/08/09 07:50:32;;;;;;;3.45;3.15;;;29.50;39.60;;;23.61;48.09;96121.63;4939768;28;20023;-46
2022/08/09 07:53:03;;;;;;;5.20;3.25;;;29.70;39.50;;;23.82;47.32;96140.66;4963327;28;20034;-45
2022/08/09 07:55:29;;;;;;;3.80;3.40;;;29.90;39.10;;;23.78;46.98;96116.06;4944806;28;20105;-46
2022/08/09 07:57:56;;;;;;;4.28;3.20;;;30.10;38.90;;;24.02;46.41;96120.75;4953903;28;20429;-48
2022/08/09 08:00:25;;;;;;;3.90;3.60;;;30.20;38.40;;;23.94;46.29;96116.22;4943576;28;20134;-47
2022/08/09 08:02:56;;;;;;;6.05;3.30;;;30.40;37.80;;;24.04;45.62;96123.13;4923833;28;20477;-47
2022/08/09 08:05:23;;;;;;;8.33;3.40;;;30.60;37.50;;;24.49;45.62;96116.03;4961784;28;20426;-47
2022/08/09 08:07:49;;;;;;;3.83;3.40;;;30.70;37.50;;;24.57;45.74;96118.66;4964788;28;20037;-52
2022/08/09 08:10:27;;;;;;;3.70;3.40;;;30.90;37.40;;;24.75;45.62;96123.84;4960813;28;20497;-50
2022/08/09 08:12:56;;;;;;;3.85;3.42;;;31.10;37.10;;;24.91;45.49;96119.25;4953112;28;20065;-48
2022/08/09 08:15:25;;;;;;;3.83;3.53;;;31.20;36.80;;;24.68;45.32;96116.25;4956168;28;20039;-48
2022/08/09 08:17:52;;;;;;;4.40;3.42;;;31.30;36.50;;;24.66;45.43;96094.00;4943904;28;20045;-47
2022/08/09 08:20:20;;;;;;;3.83;3.47;;;31.40;36.20;;;24.85;45.23;96107.00;4938157;28;20081;-47
2022/08/09 08:22:48;;;;;;;7.13;3.13;;;31.50;35.90;;;25.04;44.77;96117.31;4947485;28;20026;-50
2022/08/09 08:25:17;;;;;;;3.85;3.30;;;31.60;35.80;;;25.15;44.51;96113.78;4921601;28;20038;-53
2022/08/09 08:27:46;;;;;;;6.03;3.05;;;31.70;35.70;;;25.28;42.86;96102.84;4949917;28;20541;-48
2022/08/09 08:30:13;;;;;;;6.35;3.15;;;31.80;35.20;;;25.54;42.03;96105.94;4939346;28;20084;-45
2022/08/09 08:32:40;;;;;;;4.43;3.03;;;32.00;35.00;;;25.66;42.52;96104.25;4938975;28;20474;-54
2022/08/09 08:35:10;;;;;;;3.40;3.10;;;32.20;34.70;;;25.80;42.19;96107.38;4956207;28;20109;-44
2022/08/09 08:37:35;;;;;;;3.40;3.10;;;32.30;34.30;;;25.68;41.97;96102.00;4937501;28;20058;-45
2022/08/09 08:40:09;;;;;;;3.30;3.10;;;32.40;33.90;;;25.62;41.72;96107.69;4940305;28;20056;-46
2022/08/09 08:42:40;;;;;;;4.22;2.80;;;32.50;33.40;;;25.45;41.82;96116.19;4936049;28;20039;-47
2022/08/09 08:45:10;;;;;;;3.20;3.00;;;32.60;33.20;;;25.41;42.22;96100.88;4929718;28;20414;-45
2022/08/09 08:47:42;;;;;;;4.65;2.80;;;32.60;33.00;;;25.60;41.98;96103.72;4940902;28;20050;-46
2022/08/09 08:50:22;;;;;;;5.30;2.72;;;32.60;32.80;;;25.80;40.87;96107.38;4961530;28;20550;-50
2022/08/09 08:52:55;;;;;;;5.07;2.75;;;32.70;32.70;;;25.77;40.77;96102.63;4957709;28;20515;-45
2022/08/09 08:55:27;;;;;;;3.05;2.75;;;32.80;32.20;;;25.72;40.14;96111.06;4944723;28;20022;-50
2022/08/09 08:57:56;;;;;;;3.47;2.67;;;32.80;31.90;;;25.78;40.11;96109.66;4941763;28;20125;-45
2022/08/09 09:00:22;;;;;;;2.70;2.50;;;32.90;32.30;;;25.78;39.36;96115.13;4951480;28;20057;-57
2022/08/09 09:02:51;;;;;;;4.43;2.50;;;32.90;31.30;;;26.11;39.31;96128.47;4933794;28;20034;-47
2022/08/09 09:05:25;;;;;;;5.53;2.60;;;33.00;31.20;;;26.01;38.10;96112.59;4938959;28;20540;-44
2022/08/09 09:07:53;;;;;;;3.05;2.58;;;33.10;30.70;;;26.06;38.98;96121.34;4936813;28;20078;-45
2022/08/09 09:10:22;;;;;;;2.70;2.50;;;33.20;30.60;;;26.31;38.07;96121.16;4923960;28;20085;-47
2022/08/09 09:12:49;;;;;;;2.90;2.70;;;33.30;30.40;;;26.14;38.08;96110.63;4929908;28;20117;-52
2022/08/09 09:15:15;;;;;;;2.92;2.50;;;33.40;30.10;;;26.24;38.15;96113.59;4952997;28;20113;-44
2022/08/09 09:17:41;;;;;;;2.80;2.60;;;33.40;30.00;;;25.88;39.15;96119.28;4951536;28;20042;-45
2022/08/09 09:20:12;;;;;;;3.08;2.67;;;33.50;29.80;;;26.34;38.76;96120.47;4939467;29;20022;-47
2022/08/09 09:22:58;;;;;;;6.35;2.97;;;33.50;29.80;;;26.71;37.66;96122.91;4939712;28;20027;-47
2022/08/09 09:25:45;;;;;;;3.65;2.65;;;33.60;30.00;;;27.00;37.00;96110.66;4954031;28;20025;-45
2022/08/09 09:28:13;;;;;;;3.97;2.38;;;33.80;29.80;;;27.42;36.66;96123.66;4955548;28;20126;-46
2022/08/09 09:30:56;;;;;;;3.78;2.50;;;34.00;29.70;;;27.84;36.11;96128.41;4938466;29;20018;-45
2022/08/09 09:33:36;;;;;;;5.22;2.50;;;34.20;29.60;;;27.84;35.42;96129.22;4955298;28;20621;-46
2022/08/09 09:36:07;;;;;;;5.97;2.65;;;34.40;29.30;;;27.26;35.08;96092.88;4938129;29;20157;-45
2022/08/09 09:38:56;;;;;;;4.70;2.63;;;34.60;28.80;;;27.16;36.20;96121.56;4955011;28;20081;-44
2022/08/09 09:41:22;;;;;;;3.63;2.58;;;34.60;28.60;;;27.71;35.50;96122.28;4936374;29;20417;-47
2022/08/09 09:44:00;;;;;;;3.35;2.50;;;34.70;28.60;;;27.77;34.99;96129.09;4958024;28;20026;-46
2022/08/09 09:46:40;;;;;;;6.05;2.70;;;34.80;28.50;;;27.63;34.83;96126.81;4933461;29;20023;-47
2022/08/09 09:49:20;;;;;;;4.50;2.53;;;34.90;28.10;;;27.81;34.03;96121.72;4930848;29;20146;-46
2022/08/09 09:51:47;;;;;;;2.50;2.30;;;35.00;27.90;;;28.22;33.64;96132.22;4934503;29;20417;-47
2022/08/09 09:54:19;;;;;;;2.88;2.50;;;35.10;27.80;;;28.20;33.26;96132.56;4936513;29;20237;-47
2022/08/09 09:56:49;;;;;;;4.20;2.90;;;35.30;27.60;;;28.35;33.62;96120.69;4937230;29;20498;-45
2022/08/09 09:59:34;;;;;;;3.58;2.55;;;35.40;27.50;;;28.35;33.92;96133.59;4947132;29;20027;-48
2022/08/09 10:02:03;;;;;;;3.20;2.95;;;35.50;27.50;;;28.53;33.20;96125.72;4939477;29;20433;-46
2022/08/09 10:04:34;;;;;;;2.90;2.70;;;35.60;27.30;;;28.44;33.22;96123.22;4939345;28;20493;-45
2022/08/09 10:07:00;;;;;;;2.97;2.70;;;35.70;26.90;;;28.01;33.34;96121.69;4925942;29;20031;-47
2022/08/09 10:09:26;;;;;;;2.83;2.63;;;35.70;26.90;;;27.64;34.88;96130.34;4931759;29;20035;-46
2022/08/09 10:12:02;;;;;;;2.60;2.40;;;35.70;26.70;;;27.67;34.73;96124.16;4963619;28;20423;-47
2022/08/09 10:14:30;;;;;;;3.72;2.78;;;35.60;26.80;;;28.17;34.43;96114.13;4909005;28;31554;-48
2022/08/09 10:17:10;;;;;;;3.50;2.88;;;35.50;26.80;;;28.54;33.68;96124.53;4962058;28;20493;-48
2022/08/09 10:19:49;;;;;;;4.75;2.88;;;35.60;26.80;;;28.47;33.66;96116.22;4940339;28;20035;-48
2022/08/09 10:22:26;;;;;;;5.07;2.60;;;35.70;26.90;;;28.34;33.73;96137.50;4936126;28;20062;-48
2022/08/09 10:24:53;;;;;;;2.80;2.60;;;35.70;26.70;;;28.53;33.41;96129.22;4944263;28;20027;-48
2022/08/09 10:27:19;;;;;;;4.03;2.70;;;35.80;26.80;;;28.56;32.71;96127.72;4943127;28;20034;-48
2022/08/09 10:29:48;;;;;;;2.75;2.55;;;35.80;26.50;;;28.85;32.41;96128.13;4920381;28;20043;-49
2022/08/09 10:32:23;;;;;;;4.13;2.88;;;35.90;26.40;;;28.76;32.64;96118.22;4950264;28;20054;-49
2022/08/09 10:34:55;;;;;;;3.55;3.10;;;36.10;26.40;;;28.83;33.29;96126.56;4931982;28;20111;-48